Time;durP1;ratioP1;P1;durP2;ratioP2;P2;SDS_P1;SDS_P2;PMS_P1;PMS_P2;Temp;Humidity;BMP_temperature;BMP_pressure;BME280_temperature;BME280_humidity;BME280_pressure;Samples;Min_cycle;Max_cycle;Signal;HPM_P1;HPM_P2
2022/01/01 00:02:00;;;;;;;33.10;21.40;;;;;;;7.98;87.45;98621.60;104982;1312;23042;-74
2022/01/01 00:04:27;;;;;;;38.20;24.30;;;;;;;7.95;87.45;98621.77;104958;1312;22568;-74
2022/01/01 00:06:53;;;;;;;37.70;21.90;;;;;;;7.95;87.11;98621.82;104953;1312;22605;-74
2022/01/01 00:09:21;;;;;;;25.90;17.40;;;;;;;7.98;87.31;98622.49;104907;1311;22571;-76
2022/01/01 00:11:48;;;;;;;22.00;14.40;;;;;;;8.01;87.66;98620.95;105001;1313;24395;-76
2022/01/01 00:14:15;;;;;;;20.70;14.00;;;;;;;8.01;87.48;98628.57;104962;1312;22624;-75
2022/01/01 00:16:42;;;;;;;21.50;13.80;;;;;;;8.01;87.80;98629.25;104950;1313;22621;-75
2022/01/01 00:19:09;;;;;;;21.70;13.40;;;;;;;7.99;87.68;98632.33;104982;1312;22585;-76
2022/01/01 00:21:35;;;;;;;21.40;12.10;;;;;;;7.98;87.79;98630.45;104980;1313;22702;-74
2022/01/01 00:24:03;;;;;;;19.60;11.70;;;;;;;8.00;87.69;98631.20;105008;1311;22710;-74
2022/01/01 00:26:29;;;;;;;18.50;10.40;;;;;;;8.04;87.66;98628.95;104978;1311;22730;-75
2022/01/01 00:28:56;;;;;;;16.80;10.50;;;;;;;8.08;87.98;98631.62;104940;1312;23218;-74
2022/01/01 00:31:23;;;;;;;17.50;9.70;;;;;;;8.10;88.15;98632.39;104926;1313;23418;-73
2022/01/01 00:33:50;;;;;;;15.30;10.10;;;;;;;8.11;88.27;98629.20;104987;1313;22624;-74
2022/01/01 00:36:17;;;;;;;17.90;10.00;;;;;;;8.13;88.33;98628.58;104979;1313;22526;-73
2022/01/01 00:38:44;;;;;;;17.00;10.10;;;;;;;8.12;88.26;98628.13;104960;1310;22638;-73
2022/01/01 00:41:11;;;;;;;18.30;10.10;;;;;;;8.11;88.46;98629.06;105009;1312;22561;-74
2022/01/01 00:43:38;;;;;;;17.50;9.60;;;;;;;8.13;88.37;98630.69;104962;1312;23157;-75
2022/01/01 00:46:05;;;;;;;14.80;9.00;;;;;;;8.18;88.15;98634.04;104970;1313;22587;-74
2022/01/01 00:48:32;;;;;;;13.80;8.70;;;;;;;8.19;88.61;98637.80;104952;1313;27697;-73
2022/01/01 00:50:59;;;;;;;15.70;8.90;;;;;;;8.21;88.52;98640.83;104930;1313;25342;-73
2022/01/01 00:53:26;;;;;;;15.90;9.70;;;;;;;8.23;88.72;98646.44;104986;1312;22578;-75
2022/01/01 00:55:53;;;;;;;13.60;8.60;;;;;;;8.22;88.94;98646.30;105000;1312;22582;-75
2022/01/01 00:58:20;;;;;;;16.40;10.00;;;;;;;8.21;88.53;98650.01;104937;1313;23056;-74
2022/01/01 01:00:47;;;;;;;15.30;8.80;;;;;;;8.20;88.55;98652.34;104958;1312;22581;-75
2022/01/01 01:03:17;;;;;;;14.50;8.20;;;;;;;8.23;88.47;98662.39;104981;1313;24191;-74
2022/01/01 01:05:46;;;;;;;16.20;8.70;;;;;;;8.24;88.65;98664.41;104956;1310;25438;-73
2022/01/01 01:08:15;;;;;;;12.80;8.00;;;;;;;8.26;88.71;98666.89;104954;1313;22615;-73
2022/01/01 01:10:46;;;;;;;13.20;8.40;;;;;;;8.25;88.72;98668.98;104749;1315;22612;-73
2022/01/01 01:13:15;;;;;;;14.80;8.50;;;;;;;8.24;89.00;98665.76;104749;1313;22685;-74
2022/01/01 01:15:43;;;;;;;18.40;9.30;;;;;;;8.23;89.05;98672.81;104824;1314;22579;-76
2022/01/01 01:18:10;;;;;;;13.60;9.50;;;;;;;8.23;88.54;98676.94;104971;1312;24198;-73
2022/01/01 01:20:37;;;;;;;13.40;8.20;;;;;;;8.26;88.66;98674.69;105007;1312;22567;-75
2022/01/01 01:23:05;;;;;;;13.90;8.60;;;;;;;8.27;88.53;98683.50;105017;1311;22604;-73
2022/01/01 01:25:39;;;;;;;13.80;8.30;;;;;;;8.28;89.04;98693.14;104991;1311;26352;-74
2022/01/01 01:28:08;;;;;;;13.60;8.30;;;;;;;8.28;88.99;98695.23;104904;1312;22604;-73
2022/01/01 01:30:37;;;;;;;15.80;9.90;;;;;;;8.28;89.03;98695.23;104977;1313;22570;-74
2022/01/01 01:33:07;;;;;;;13.20;8.10;;;;;;;8.24;89.03;98703.26;104976;1312;26711;-72
2022/01/01 01:35:34;;;;;;;15.80;9.00;;;;;;;8.23;88.72;98705.05;104983;1312;22586;-75
2022/01/01 01:38:02;;;;;;;15.00;8.10;;;;;;;8.28;88.77;98707.38;104922;1311;22586;-74
2022/01/01 01:40:29;;;;;;;12.50;8.00;;;;;;;8.30;89.12;98709.20;104946;1313;22571;-75
2022/01/01 01:42:56;;;;;;;13.90;8.40;;;;;;;8.32;88.92;98707.73;104968;1312;22691;-73
2022/01/01 01:45:27;;;;;;;15.50;8.70;;;;;;;8.33;88.98;98714.42;104970;1312;22585;-73
2022/01/01 01:47:54;;;;;;;15.30;9.60;;;;;;;8.32;89.08;98716.57;104940;1312;22596;-73
2022/01/01 01:50:21;;;;;;;11.50;7.60;;;;;;;8.30;88.88;98718.38;104933;1313;22723;-73
2022/01/01 01:52:55;;;;;;;11.60;7.40;;;;;;;8.34;88.91;98721.15;105000;1312;22627;-73
2022/01/01 01:55:22;;;;;;;13.00;7.10;;;;;;;8.37;89.46;98722.58;104969;1313;22689;-73
2022/01/01 01:57:49;;;;;;;10.10;6.30;;;;;;;8.38;89.30;98726.48;104963;1311;22619;-73
2022/01/01 02:02:54;;;;;;;12.80;7.80;;;;;;;8.36;89.42;98734.37;105084;1312;24242;-73
2022/01/01 02:05:21;;;;;;;11.40;6.80;;;;;;;8.34;89.13;98737.80;105233;1312;23926;-73
2022/01/01 02:07:50;;;;;;;12.30;7.40;;;;;;;8.34;89.11;98739.20;105220;1313;22708;-74
2022/01/01 02:10:17;;;;;;;12.20;6.70;;;;;;;8.37;89.12;98737.83;105187;1312;22621;-74
2022/01/01 02:12:51;;;;;;;11.00;6.60;;;;;;;8.38;89.19;98742.46;105245;1311;22577;-74
2022/01/01 02:18:05;;;;;;;11.50;6.20;;;;;;;8.40;89.52;98746.69;105217;1313;22583;-77
2022/01/01 02:20:32;;;;;;;11.20;6.50;;;;;;;8.40;89.42;98748.58;105091;1310;22653;-74
2022/01/01 02:23:01;;;;;;;12.30;6.80;;;;;;;8.39;89.55;98754.89;105239;1313;22615;-74
2022/01/01 02:25:29;;;;;;;11.30;6.80;;;;;;;8.38;89.58;98757.58;105300;1311;22600;-76
2022/01/01 02:27:56;;;;;;;11.50;6.60;;;;;;;8.37;89.23;98759.50;105155;1311;22580;-75
2022/01/01 02:30:23;;;;;;;10.70;6.20;;;;;;;8.40;89.07;98758.11;105178;1312;22678;-75
2022/01/01 02:32:50;;;;;;;12.80;6.30;;;;;;;8.42;89.31;98766.15;105062;1313;22586;-74
2022/01/01 02:35:18;;;;;;;10.20;6.00;;;;;;;8.42;89.63;98772.23;105149;1313;22590;-74
2022/01/01 02:37:45;;;;;;;9.50;6.10;;;;;;;8.43;89.37;98774.45;105178;1313;22590;-74
2022/01/01 02:40:13;;;;;;;10.40;6.10;;;;;;;8.41;89.88;98770.91;105215;1312;22631;-75
2022/01/01 02:42:42;;;;;;;11.70;7.20;;;;;;;8.41;89.82;98774.94;105187;1313;22609;-75
2022/01/01 02:45:11;;;;;;;11.10;6.30;;;;;;;8.41;89.53;98771.96;105242;1313;22579;-74
2022/01/01 02:47:39;;;;;;;10.80;7.10;;;;;;;8.45;89.59;98775.00;105247;1312;22615;-75
2022/01/01 02:50:08;;;;;;;11.10;6.40;;;;;;;8.47;89.49;98779.10;105220;1312;22612;-74
2022/01/01 02:52:35;;;;;;;10.60;6.30;;;;;;;8.48;89.73;98778.89;105238;1312;23034;-77
2022/01/01 02:55:04;;;;;;;10.70;6.60;;;;;;;8.48;89.86;98775.06;105245;1313;22589;-75
2022/01/01 02:57:31;;;;;;;11.80;7.50;;;;;;;8.46;89.58;98773.24;105245;1309;24326;-76
2022/01/01 02:59:58;;;;;;;11.60;6.60;;;;;;;8.43;89.87;98774.79;104974;1313;22566;-75
2022/01/01 03:02:25;;;;;;;11.90;7.30;;;;;;;8.43;89.57;98773.06;104846;1315;22570;-74
2022/01/01 03:04:52;;;;;;;11.00;6.70;;;;;;;8.47;89.50;98773.52;105019;1313;22727;-74
2022/01/01 03:07:19;;;;;;;9.80;6.00;;;;;;;8.50;89.65;98772.84;105031;1312;22638;-74
2022/01/01 03:09:46;;;;;;;11.00;6.30;;;;;;;8.51;89.89;98775.21;104920;1311;22580;-74
2022/01/01 03:12:15;;;;;;;10.10;6.40;;;;;;;8.52;90.10;98777.05;104968;1311;22583;-73
2022/01/01 03:14:43;;;;;;;11.10;6.50;;;;;;;8.50;90.22;98780.84;104886;1313;24153;-74
2022/01/01 03:17:10;;;;;;;12.20;7.10;;;;;;;8.50;89.96;98781.90;104935;1313;22590;-73
2022/01/01 03:19:37;;;;;;;12.30;7.50;;;;;;;8.54;89.90;98784.27;104962;1313;22574;-74
2022/01/01 03:22:05;;;;;;;15.30;7.10;;;;;;;8.56;89.86;98780.33;104904;1313;23024;-74
2022/01/01 03:24:32;;;;;;;8.60;5.50;;;;;;;8.57;90.00;98785.48;104929;1312;22645;-74
2022/01/01 03:27:01;;;;;;;8.80;5.10;;;;;;;8.58;90.14;98784.90;104941;1311;25363;-74
2022/01/01 03:29:30;;;;;;;9.80;5.80;;;;;;;8.56;90.10;98787.43;104942;1312;22577;-74
2022/01/01 03:31:57;;;;;;;9.50;5.00;;;;;;;8.57;90.00;98791.73;105022;1312;22606;-73
2022/01/01 03:34:25;;;;;;;8.70;5.30;;;;;;;8.57;89.65;98796.27;104949;1313;22601;-73
2022/01/01 03:36:52;;;;;;;7.80;5.20;;;;;;;8.60;89.82;98793.96;104990;1312;22576;-74
2022/01/01 03:39:22;;;;;;;7.60;4.70;;;;;;;8.62;89.90;98794.92;104971;1312;22584;-73
2022/01/01 03:41:49;;;;;;;7.60;5.40;;;;;;;8.60;89.77;98795.71;105007;1312;22533;-75
2022/01/01 03:44:16;;;;;;;8.20;5.00;;;;;;;8.61;90.12;98798.96;105018;1312;22989;-74
2022/01/01 03:46:43;;;;;;;8.50;5.30;;;;;;;8.61;90.21;98800.85;104908;1313;23608;-73
2022/01/01 03:49:11;;;;;;;10.70;6.30;;;;;;;8.58;89.93;98802.46;104961;1311;24461;-73
2022/01/01 03:51:38;;;;;;;9.10;5.50;;;;;;;8.59;90.15;98807.06;105001;1313;22596;-75
2022/01/01 03:54:05;;;;;;;10.30;6.20;;;;;;;8.61;89.88;98805.20;104993;1312;22600;-74
2022/01/01 03:56:32;;;;;;;8.50;5.60;;;;;;;8.61;89.83;98806.21;104967;1313;22608;-74
2022/01/01 03:58:59;;;;;;;8.10;5.60;;;;;;;8.62;90.06;98810.86;104955;1312;22597;-75
2022/01/01 04:01:26;;;;;;;9.60;5.60;;;;;;;8.63;90.15;98809.11;104919;1313;22564;-74
2022/01/01 04:03:53;;;;;;;10.10;5.80;;;;;;;8.61;90.05;98812.67;105026;1313;22983;-73
2022/01/01 04:06:20;;;;;;;10.00;6.40;;;;;;;8.59;90.20;98817.98;104916;1312;22599;-75
2022/01/01 04:08:47;;;;;;;9.50;6.00;;;;;;;8.61;89.82;98817.54;104936;1313;22586;-75
2022/01/01 04:11:13;;;;;;;9.10;5.90;;;;;;;8.64;89.77;98815.29;104939;1313;23230;-74
2022/01/01 04:13:40;;;;;;;8.30;5.50;;;;;;;8.66;89.83;98816.94;104975;1313;22608;-73
2022/01/01 04:16:07;;;;;;;7.80;5.30;;;;;;;8.68;90.34;98820.52;105006;1313;22617;-73
2022/01/01 04:18:40;;;;;;;9.40;6.40;;;;;;;8.67;90.03;98818.42;104958;1313;22974;-74
2022/01/01 04:21:10;;;;;;;7.70;5.10;;;;;;;8.65;90.24;98819.42;104986;1313;22606;-75
2022/01/01 04:23:43;;;;;;;10.90;5.80;;;;;;;8.65;90.02;98819.95;104990;1313;22580;-73
2022/01/01 04:26:10;;;;;;;8.90;5.70;;;;;;;8.69;90.06;98820.73;104980;1313;22606;-73
2022/01/01 04:28:37;;;;;;;8.30;5.10;;;;;;;8.71;90.02;98822.89;105000;1309;24130;-74
2022/01/01 04:31:04;;;;;;;13.80;6.00;;;;;;;8.72;90.20;98827.18;104908;1312;22589;-75
2022/01/01 04:33:32;;;;;;;8.90;5.90;;;;;;;8.71;90.28;98826.92;104969;1312;25566;-74
2022/01/01 04:35:58;;;;;;;9.70;5.90;;;;;;;8.69;90.38;98828.93;104862;1312;22579;-73
2022/01/01 04:38:39;;;;;;;7.90;5.60;;;;;;;8.69;90.22;98832.94;104947;1313;22665;-74
2022/01/01 04:41:09;;;;;;;7.40;5.30;;;;;;;8.72;90.17;98834.17;104967;1313;22596;-75
2022/01/01 04:43:36;;;;;;;6.50;4.40;;;;;;;8.75;90.06;98833.63;104881;1313;22586;-74
2022/01/01 04:46:04;;;;;;;8.00;5.00;;;;;;;8.76;89.78;98840.20;104933;1312;22992;-74
2022/01/01 04:48:31;;;;;;;8.40;5.00;;;;;;;8.76;90.29;98842.99;104977;1313;22626;-75
2022/01/01 04:50:57;;;;;;;8.90;5.60;;;;;;;8.73;90.21;98847.64;104923;1313;24399;-74
2022/01/01 04:53:24;;;;;;;9.50;5.40;;;;;;;8.70;90.25;98842.75;104978;1312;22872;-75
2022/01/01 04:55:51;;;;;;;8.50;5.30;;;;;;;8.71;90.10;98842.20;104910;1313;25320;-75
2022/01/01 04:58:18;;;;;;;6.50;4.50;;;;;;;8.73;90.02;98849.87;104937;1309;22583;-74
2022/01/01 05:00:45;;;;;;;7.40;5.10;;;;;;;8.74;90.07;98850.36;104913;1313;22603;-74
2022/01/01 05:03:12;;;;;;;9.10;5.70;;;;;;;8.76;90.33;98847.29;104795;1313;22577;-75
2022/01/01 05:05:39;;;;;;;9.90;5.80;;;;;;;8.75;90.22;98848.05;104956;1313;22554;-76
2022/01/01 05:08:07;;;;;;;9.50;6.00;;;;;;;8.73;89.99;98848.18;104969;1313;22593;-75
2022/01/01 05:10:33;;;;;;;8.80;5.50;;;;;;;8.71;90.14;98850.33;104957;1313;25305;-76
2022/01/01 05:13:00;;;;;;;8.60;5.90;;;;;;;8.73;90.03;98850.41;104906;1313;22699;-77
2022/01/01 05:15:27;;;;;;;8.80;6.00;;;;;;;8.74;90.04;98855.90;104967;1313;22987;-75
2022/01/01 05:17:54;;;;;;;7.50;5.10;;;;;;;8.73;90.22;98858.20;104930;1312;23951;-75
2022/01/01 05:20:21;;;;;;;8.00;4.90;;;;;;;8.73;90.30;98858.92;104981;1313;22608;-74
2022/01/01 05:22:48;;;;;;;7.50;4.90;;;;;;;8.73;90.23;98861.55;104946;1313;22593;-74
2022/01/01 05:25:15;;;;;;;8.30;4.90;;;;;;;8.71;90.33;98864.77;104941;1313;25599;-74
2022/01/01 05:27:43;;;;;;;7.10;5.10;;;;;;;8.67;90.23;98864.80;104960;1312;25276;-76
2022/01/01 05:30:11;;;;;;;9.40;5.50;;;;;;;8.67;89.95;98872.97;104934;1313;22586;-75
2022/01/01 05:32:38;;;;;;;7.90;4.90;;;;;;;8.68;89.89;98874.85;104979;1313;22616;-76
2022/01/01 05:35:05;;;;;;;7.50;4.80;;;;;;;8.70;89.94;98880.77;104835;1313;22589;-75
2022/01/01 05:37:32;;;;;;;7.60;4.30;;;;;;;8.70;90.38;98881.66;105053;1308;24163;-75
2022/01/01 05:39:59;;;;;;;8.90;5.20;;;;;;;8.70;90.58;98890.14;104924;1313;25717;-73
2022/01/01 05:42:26;;;;;;;7.00;4.20;;;;;;;8.70;90.29;98893.65;105019;1313;22576;-73
2022/01/01 05:44:53;;;;;;;6.40;4.30;;;;;;;8.66;90.80;98891.07;104983;1313;22603;-74
2022/01/01 05:47:20;;;;;;;7.30;4.60;;;;;;;8.65;90.42;98889.03;104961;1313;22584;-76
2022/01/01 05:49:47;;;;;;;8.40;5.40;;;;;;;8.63;90.19;98894.34;104970;1312;25466;-75
2022/01/01 05:52:14;;;;;;;8.40;4.80;;;;;;;8.66;90.27;98894.35;104895;1313;22601;-74
2022/01/01 05:54:41;;;;;;;8.40;4.70;;;;;;;8.68;90.37;98897.35;104930;1313;23006;-75
2022/01/01 05:57:08;;;;;;;7.90;4.90;;;;;;;8.68;90.28;98902.60;104987;1313;25229;-74
2022/01/01 05:59:35;;;;;;;6.50;4.30;;;;;;;8.67;90.47;98904.55;105029;1311;22858;-72
2022/01/01 06:02:02;;;;;;;6.70;4.30;;;;;;;8.68;90.63;98905.52;104957;1312;22577;-75
2022/01/01 06:04:29;;;;;;;7.80;4.20;;;;;;;8.65;90.48;98911.08;104953;1313;23092;-75
2022/01/01 06:06:56;;;;;;;8.20;4.70;;;;;;;8.61;90.37;98914.02;104937;1313;22567;-74
2022/01/01 06:09:23;;;;;;;7.50;4.80;;;;;;;8.64;90.29;98915.30;104913;1313;22644;-74
2022/01/01 06:11:49;;;;;;;7.40;4.50;;;;;;;8.66;90.66;98913.27;104964;1313;22587;-73
2022/01/01 06:14:16;;;;;;;7.60;4.60;;;;;;;8.67;90.74;98918.79;104932;1313;22595;-72
2022/01/01 06:16:43;;;;;;;7.20;4.50;;;;;;;8.66;90.65;98922.83;104934;1313;25411;-74
2022/01/01 06:19:10;;;;;;;9.20;5.00;;;;;;;8.66;90.71;98929.63;104900;1313;22654;-74
2022/01/01 06:21:37;;;;;;;8.60;5.30;;;;;;;8.63;90.78;98932.88;104989;1313;22774;-75
2022/01/01 06:24:05;;;;;;;8.60;5.40;;;;;;;8.62;90.40;98938.67;104946;1313;22574;-74
2022/01/01 06:26:32;;;;;;;7.80;4.90;;;;;;;8.61;90.37;98940.08;104933;1313;22675;-75
2022/01/01 06:29:00;;;;;;;9.10;5.70;;;;;;;8.67;90.22;98939.98;104987;1312;23027;-74
2022/01/01 06:31:28;;;;;;;7.20;5.50;;;;;;;8.65;90.21;98942.50;104986;1312;22577;-73
2022/01/01 06:33:55;;;;;;;8.30;5.30;;;;;;;8.67;90.34;98942.42;104957;1311;22567;-73
2022/01/01 06:36:22;;;;;;;10.40;6.00;;;;;;;8.67;90.43;98938.59;104906;1307;22590;-73
2022/01/01 06:38:49;;;;;;;9.90;5.90;;;;;;;8.64;90.47;98936.82;104903;1312;22609;-72
2022/01/01 06:41:17;;;;;;;8.50;5.60;;;;;;;8.61;90.52;98946.52;104944;1312;25426;-76
2022/01/01 06:43:44;;;;;;;10.50;6.90;;;;;;;8.61;90.28;98951.35;104908;1313;22568;-73
2022/01/01 06:46:11;;;;;;;9.60;6.30;;;;;;;8.62;90.24;98948.52;105009;1309;22567;-73
2022/01/01 06:48:38;;;;;;;7.50;5.70;;;;;;;8.66;90.28;98953.23;104975;1313;22663;-72
2022/01/01 06:51:05;;;;;;;8.00;5.40;;;;;;;8.65;90.36;98955.85;104956;1313;22635;-73
2022/01/01 06:53:32;;;;;;;10.50;6.30;;;;;;;8.63;90.56;98951.61;104991;1313;22629;-75
2022/01/01 06:56:04;;;;;;;9.90;5.90;;;;;;;8.63;90.51;98957.85;104916;1313;22657;-74
2022/01/01 06:58:31;;;;;;;9.90;6.20;;;;;;;8.61;90.37;98961.45;104946;1312;22668;-74
2022/01/01 07:00:58;;;;;;;9.50;5.90;;;;;;;8.60;90.31;98960.29;105193;1313;25322;-74
2022/01/01 07:03:25;;;;;;;8.60;5.10;;;;;;;8.62;90.34;98963.62;105199;1313;22599;-74
2022/01/01 07:05:52;;;;;;;7.40;4.80;;;;;;;8.64;90.29;98964.41;105083;1307;23222;-74
2022/01/01 07:08:19;;;;;;;7.20;5.00;;;;;;;8.65;90.17;98972.73;104942;1313;22603;-73
2022/01/01 07:10:46;;;;;;;8.00;4.80;;;;;;;8.68;90.71;98971.70;104945;1313;22676;-73
2022/01/01 07:13:16;;;;;;;7.70;5.30;;;;;;;8.68;90.64;98976.71;104946;1313;22619;-73
2022/01/01 07:15:43;;;;;;;6.90;4.60;;;;;;;8.65;90.25;98982.25;104946;1313;22592;-76
2022/01/01 07:18:10;;;;;;;8.60;4.50;;;;;;;8.66;89.98;98981.38;104998;1313;22573;-75
2022/01/01 07:20:37;;;;;;;6.80;4.10;;;;;;;8.69;90.36;98983.65;104979;1313;22970;-75
2022/01/01 07:23:04;;;;;;;8.20;4.50;;;;;;;8.70;90.43;98988.59;104960;1313;22567;-74
2022/01/01 07:25:31;;;;;;;8.20;4.50;;;;;;;8.73;90.17;98990.69;104924;1312;23365;-73
2022/01/01 07:27:58;;;;;;;8.00;5.10;;;;;;;8.73;90.34;98987.57;104984;1313;22573;-75
2022/01/01 07:30:25;;;;;;;9.10;5.60;;;;;;;8.72;90.34;98986.09;104957;1311;22599;-72
2022/01/01 07:32:52;;;;;;;8.50;6.10;;;;;;;8.73;90.40;98989.86;105031;1311;22675;-73
2022/01/01 07:35:21;;;;;;;8.40;5.10;;;;;;;8.77;90.18;98988.96;104985;1310;25251;-73
2022/01/01 07:37:49;;;;;;;8.20;5.40;;;;;;;8.77;90.09;98990.65;105062;1311;22876;-73
2022/01/01 07:40:17;;;;;;;9.30;5.50;;;;;;;8.79;90.27;98995.08;105073;1312;22681;-73
2022/01/01 07:42:46;;;;;;;9.90;6.00;;;;;;;8.80;90.52;98996.22;105050;1311;22626;-74
2022/01/01 07:45:13;;;;;;;10.20;5.20;;;;;;;8.78;90.23;98999.80;105007;1311;22612;-74
2022/01/01 07:47:40;;;;;;;10.20;6.10;;;;;;;8.77;90.09;99004.76;104966;1304;22649;-74
2022/01/01 07:50:08;;;;;;;13.10;7.20;;;;;;;8.74;89.94;99010.80;104952;1311;22570;-74
2022/01/01 07:52:35;;;;;;;11.20;6.60;;;;;;;8.77;90.09;99009.79;104975;1311;22637;-74
2022/01/01 07:55:03;;;;;;;8.80;5.80;;;;;;;8.77;89.85;99016.92;104973;1311;23118;-74
2022/01/01 07:57:30;;;;;;;10.80;6.30;;;;;;;8.78;90.31;99015.97;104988;1311;22564;-74
2022/01/01 07:59:57;;;;;;;10.60;6.00;;;;;;;8.79;90.00;99018.86;105000;1311;22679;-75
2022/01/01 08:02:24;;;;;;;11.40;6.10;;;;;;;8.80;90.27;99024.19;104962;1311;22615;-74
2022/01/01 08:04:54;;;;;;;10.20;6.10;;;;;;;8.80;90.42;99027.51;104781;1309;22612;-73
2022/01/01 08:07:20;;;;;;;8.90;5.50;;;;;;;8.79;90.11;99029.66;104944;1312;22621;-73
2022/01/01 08:09:47;;;;;;;6.50;4.30;;;;;;;8.83;90.17;99028.05;104936;1313;23981;-73
2022/01/01 08:12:15;;;;;;;8.00;4.30;;;;;;;8.83;90.12;99029.45;104910;1312;22574;-73
2022/01/01 08:14:41;;;;;;;10.20;5.60;;;;;;;8.83;90.18;99032.41;104951;1313;26129;-73
2022/01/01 08:17:08;;;;;;;8.70;5.20;;;;;;;8.84;90.24;99034.23;104901;1307;22592;-74
2022/01/01 08:19:35;;;;;;;12.50;7.30;;;;;;;8.86;90.46;99040.70;104968;1312;22635;-74
2022/01/01 08:22:04;;;;;;;12.20;7.30;;;;;;;8.86;90.05;99039.14;104944;1312;24384;-74
2022/01/01 08:24:31;;;;;;;13.80;7.70;;;;;;;8.87;90.03;99042.26;104930;1313;22673;-73
2022/01/01 08:26:58;;;;;;;10.00;6.50;;;;;;;8.91;89.97;99040.09;104960;1313;22678;-73
2022/01/01 08:29:26;;;;;;;12.00;6.30;;;;;;;8.97;90.00;99040.33;104937;1307;22714;-73
2022/01/01 08:31:56;;;;;;;10.30;5.90;;;;;;;9.01;90.32;99044.78;105027;1311;22615;-73
2022/01/01 08:34:23;;;;;;;9.40;6.20;;;;;;;9.05;90.28;99040.76;105029;1311;22602;-73
2022/01/01 08:36:51;;;;;;;9.60;6.40;;;;;;;9.07;90.35;99043.45;105009;1311;23049;-74
2022/01/01 08:39:18;;;;;;;11.40;6.30;;;;;;;9.06;90.25;99045.74;105007;1311;22615;-73
2022/01/01 08:41:46;;;;;;;9.00;6.40;;;;;;;9.05;90.24;99051.55;105052;1311;22711;-74
2022/01/01 08:44:14;;;;;;;8.70;5.40;;;;;;;9.09;90.20;99051.18;104974;1311;22732;-74
2022/01/01 08:46:41;;;;;;;9.20;5.50;;;;;;;9.10;90.18;99056.00;105002;1311;22596;-74
2022/01/01 08:49:09;;;;;;;9.70;6.20;;;;;;;9.11;90.16;99061.52;105010;1311;22608;-73
2022/01/01 08:51:40;;;;;;;9.50;5.80;;;;;;;9.11;90.43;99064.65;105048;1300;24425;-73
2022/01/01 08:54:07;;;;;;;11.70;6.50;;;;;;;9.06;90.16;99062.92;105030;1311;22614;-75
2022/01/01 08:56:34;;;;;;;11.60;7.50;;;;;;;9.02;90.20;99069.78;105001;1311;24261;-74
2022/01/01 08:59:01;;;;;;;10.90;7.10;;;;;;;9.02;89.90;99070.09;104992;1308;22814;-73
2022/01/01 09:01:28;;;;;;;10.50;6.60;;;;;;;9.06;89.93;99073.20;104973;1311;22687;-73
2022/01/01 09:03:55;;;;;;;11.10;7.40;;;;;;;9.07;89.71;99072.66;104916;1312;22568;-72
2022/01/01 09:06:22;;;;;;;10.60;7.20;;;;;;;9.09;89.88;99081.39;104950;1312;23163;-74
2022/01/01 09:08:49;;;;;;;12.80;8.20;;;;;;;9.08;90.05;99079.70;104962;1313;22586;-75
2022/01/01 09:11:16;;;;;;;12.70;8.10;;;;;;;9.07;90.01;99078.91;104926;1312;25355;-74
2022/01/01 09:13:44;;;;;;;13.70;8.60;;;;;;;9.05;89.57;99081.94;104961;1313;22613;-75
2022/01/01 09:16:14;;;;;;;14.40;8.80;;;;;;;9.01;89.71;99083.57;104885;1313;22590;-75
2022/01/01 09:18:44;;;;;;;14.80;8.20;;;;;;;9.04;89.55;99084.42;104993;1311;22576;-74
2022/01/01 09:21:12;;;;;;;11.60;8.20;;;;;;;9.04;89.77;99087.17;104966;1313;22623;-74
2022/01/01 09:23:40;;;;;;;11.80;7.30;;;;;;;9.02;89.82;99091.98;104958;1313;23096;-74
2022/01/01 09:26:07;;;;;;;12.00;7.50;;;;;;;9.05;89.77;99089.95;105016;1312;22614;-74
2022/01/01 09:28:34;;;;;;;11.50;7.30;;;;;;;9.07;90.02;99090.20;104947;1313;22618;-72
2022/01/01 09:31:03;;;;;;;12.10;8.40;;;;;;;9.08;89.93;99089.46;104962;1311;22592;-74
2022/01/01 09:33:31;;;;;;;13.10;7.90;;;;;;;9.05;89.85;99089.56;105035;1311;22571;-73
2022/01/01 09:36:04;;;;;;;14.00;7.30;;;;;;;9.13;89.70;99091.27;105028;1311;22583;-73
2022/01/01 09:38:33;;;;;;;11.50;7.00;;;;;;;9.15;89.95;99096.05;105031;1311;22568;-73
2022/01/01 09:41:02;;;;;;;12.30;7.80;;;;;;;9.14;89.76;99094.83;105014;1311;22776;-74
2022/01/01 09:43:30;;;;;;;11.60;7.90;;;;;;;9.15;90.06;99110.95;105021;1311;22567;-75
2022/01/01 09:46:00;;;;;;;16.10;9.20;;;;;;;9.14;90.05;99109.28;104993;1311;23217;-74
2022/01/01 09:48:29;;;;;;;11.70;7.60;;;;;;;9.12;89.85;99112.31;104984;1311;22606;-75
2022/01/01 09:51:03;;;;;;;11.70;7.00;;;;;;;9.13;89.76;99111.23;105058;1311;22648;-74
2022/01/01 09:53:31;;;;;;;12.00;7.50;;;;;;;9.13;89.84;99107.95;105028;1311;22613;-75
2022/01/01 09:56:01;;;;;;;10.70;6.30;;;;;;;9.12;89.82;99113.21;105073;1311;22615;-81
2022/01/01 09:58:30;;;;;;;10.60;7.10;;;;;;;9.14;90.11;99115.73;105215;1308;22590;-74
2022/01/01 10:00:58;;;;;;;15.00;8.00;;;;;;;9.18;90.04;99109.79;105295;1311;22615;-74
2022/01/01 10:03:40;;;;;;;18.40;10.90;;;;;;;9.18;90.06;99107.33;105226;1312;22614;-73
2022/01/01 10:06:12;;;;;;;20.00;11.30;;;;;;;9.17;89.57;99113.64;105053;1313;22875;-73
2022/01/01 10:08:42;;;;;;;23.40;12.50;;;;;;;9.19;89.53;99113.02;105183;1307;25302;-74
2022/01/01 10:11:09;;;;;;;18.10;10.40;;;;;;;9.23;89.36;99118.86;105230;1313;22843;-75
2022/01/01 10:13:38;;;;;;;18.80;10.70;;;;;;;9.27;89.40;99117.65;105216;1313;22731;-74
2022/01/01 10:16:10;;;;;;;19.80;10.20;;;;;;;9.25;89.68;99121.40;105182;1313;22561;-76
2022/01/01 10:18:42;;;;;;;18.40;11.30;;;;;;;9.26;89.83;99126.72;105083;1314;22597;-75
2022/01/01 10:21:15;;;;;;;22.10;12.00;;;;;;;9.23;89.55;99128.78;105178;1312;22565;-74
2022/01/01 10:23:43;;;;;;;;;;;;;;;9.19;89.53;99130.05;105166;1312;22558;-74
2022/01/01 10:29:14;;;;;;;20.30;12.30;;;;;;;9.17;89.18;99126.13;105187;1312;22597;-75
2022/01/01 10:32:07;;;;;;;15.80;10.40;;;;;;;9.17;89.27;99126.69;105262;1311;22583;-74
2022/01/01 10:34:42;;;;;;;;;;;;;;;9.16;89.48;99129.32;105268;1311;22553;-72
2022/01/01 10:37:11;;;;;;;17.70;10.50;;;;;;;9.15;89.35;99128.19;105178;1313;22614;-72
2022/01/01 10:39:48;;;;;;;17.00;10.30;;;;;;;9.12;89.73;99133.55;105258;1312;25161;-72
2022/01/01 10:42:17;;;;;;;18.60;11.40;;;;;;;9.08;89.68;99129.95;105024;1311;22588;-72
2022/01/01 10:44:52;;;;;;;18.10;11.10;;;;;;;9.08;89.03;99132.89;105016;1311;24300;-73
2022/01/01 10:47:26;;;;;;;17.40;10.50;;;;;;;9.13;89.42;99130.71;105031;1311;24989;-72
2022/01/01 10:52:45;;;;;;;22.60;12.20;;;;;;;9.17;89.81;99127.54;104970;1311;24297;-72
2022/01/01 10:55:13;;;;;;;21.20;12.40;;;;;;;9.15;89.76;99131.13;105093;1310;22576;-73
2022/01/01 10:57:53;;;;;;;23.50;13.80;;;;;;;9.12;89.58;99131.77;105201;1311;22623;-73
2022/01/01 11:00:22;;;;;;;20.70;12.60;;;;;;;9.14;89.63;99132.54;105274;1311;22647;-75
2022/01/01 11:02:51;;;;;;;21.40;11.10;;;;;;;9.17;89.32;99131.36;105246;1311;22642;-73
2022/01/01 11:05:29;;;;;;;17.20;11.10;;;;;;;9.18;89.49;99126.63;105149;1307;22621;-73
2022/01/01 11:07:57;;;;;;;19.30;12.10;;;;;;;9.18;89.51;99125.27;105009;1314;22686;-74
2022/01/01 11:10:25;;;;;;;20.80;11.30;;;;;;;9.16;89.53;99122.56;105176;1312;22583;-72
2022/01/01 11:12:53;;;;;;;20.80;10.80;;;;;;;9.14;89.37;99117.27;105159;1312;25377;-73
2022/01/01 11:15:21;;;;;;;17.10;10.80;;;;;;;9.14;88.91;99120.44;105105;1313;22585;-73
2022/01/01 11:17:49;;;;;;;19.60;11.60;;;;;;;9.13;89.32;99122.70;105142;1313;22643;-76
2022/01/01 11:20:18;;;;;;;18.30;10.30;;;;;;;9.16;89.34;99122.55;105132;1312;22634;-73
2022/01/01 11:22:45;;;;;;;19.60;10.60;;;;;;;9.13;89.29;99124.09;105134;1311;22584;-73
2022/01/01 11:25:12;;;;;;;18.00;10.80;;;;;;;9.11;89.45;99124.92;105120;1313;22711;-73
2022/01/01 11:27:39;;;;;;;19.10;12.30;;;;;;;9.07;89.54;99125.30;105205;1313;22591;-73
2022/01/01 11:30:08;;;;;;;22.30;14.70;;;;;;;9.01;89.38;99123.52;105215;1312;25204;-74
2022/01/01 11:32:43;;;;;;;24.00;15.70;;;;;;;9.00;89.44;99123.90;105247;1310;22581;-73
2022/01/01 11:35:20;;;;;;;21.10;14.20;;;;;;;9.03;89.32;99121.30;105282;1311;22639;-74
2022/01/01 11:38:25;;;;;;;19.60;12.00;;;;;;;9.05;89.42;99121.20;105268;1311;22580;-74
2022/01/01 11:41:04;;;;;;;24.10;13.70;;;;;;;9.09;89.56;99120.51;105070;1311;22618;-73
2022/01/01 11:43:53;;;;;;;27.20;16.00;;;;;;;9.09;89.57;99119.45;105254;1311;22592;-74